Terminal Aerodrome Forecast
Issued by NWS Wilmington, OH

Current Version | Previous Version | Text Only | Print | Product List | Glossary Off
Versions: 1 2 3 4 5 6 7 8 9 10 11 12 13 14 15 16 17 18 19 20 21 22 23 24 25 26 27

000
FTUS41 KILN 230500
TAFCVG
TAF
KCVG 230531Z 2306/2412 04005KT P6SM BKN035
      TEMPO 2306/2307 BKN025
     FM231000 VRB03KT P6SM SCT035
     FM231500 29004KT P6SM SCT250
     FM240300 VRB03KT P6SM BKN250=

USA.gov is the U.S. government's official web portal to all federal, state and local government web resources and services.